createdAt,value
2023-04-16T00:00:15.105Z,7.29
2023-04-16T00:01:17.236Z,7.29
2023-04-16T00:02:19.810Z,7.29
2023-04-16T00:03:22.180Z,7.27
2023-04-16T00:04:24.607Z,7.26
2023-04-16T00:05:27.641Z,7.22
2023-04-16T00:06:29.714Z,7.23
2023-04-16T00:07:31.807Z,7.24
2023-04-16T00:08:35.710Z,7.17
2023-04-16T00:09:37.868Z,7.14
2023-04-16T00:10:40.016Z,7.12
2023-04-16T00:11:42.133Z,7.11
2023-04-16T00:12:44.389Z,7.09
2023-04-16T00:13:46.497Z,7.07
2023-04-16T00:14:49.213Z,7.04
2023-04-16T00:15:51.384Z,7.04
2023-04-16T00:16:53.520Z,7.03
2023-04-16T00:17:55.690Z,6.99
2023-04-16T00:18:57.827Z,6.97
2023-04-16T00:19:59.884Z,6.93
2023-04-16T00:21:01.973Z,6.91
2023-04-16T00:22:04.081Z,6.89
2023-04-16T00:23:06.222Z,6.88
2023-04-16T00:24:08.484Z,6.89
2023-04-16T00:25:10.626Z,6.88
2023-04-16T00:26:12.725Z,6.86
2023-04-16T00:27:14.870Z,6.85
2023-04-16T00:28:17.042Z,6.81
2023-04-16T00:29:19.300Z,6.83
2023-04-16T00:30:21.449Z,6.80
2023-04-16T00:31:30.954Z,6.81
2023-04-16T00:32:33.146Z,6.78
2023-04-16T00:33:35.465Z,6.79
2023-04-16T00:34:37.548Z,6.81
2023-04-16T00:35:39.960Z,6.85
2023-04-16T00:36:42.048Z,6.84
2023-04-16T00:37:44.235Z,6.79
2023-04-16T00:38:46.354Z,6.78
2023-04-16T00:39:48.453Z,6.79
2023-04-16T00:40:50.629Z,6.77
2023-04-16T00:41:52.727Z,6.82
2023-04-16T00:42:54.845Z,6.79
2023-04-16T00:43:56.996Z,6.80
2023-04-16T00:44:59.115Z,6.80
2023-04-16T00:46:01.493Z,6.80
2023-04-16T00:47:04.226Z,6.79
2023-04-16T00:48:06.334Z,6.80
2023-04-16T00:49:08.669Z,6.76
2023-04-16T00:50:11.836Z,6.73
2023-04-16T00:51:14.021Z,6.70
2023-04-16T00:52:16.140Z,6.70
2023-04-16T00:53:18.246Z,6.66
2023-04-16T00:54:20.573Z,6.66
2023-04-16T00:55:22.884Z,6.65
2023-04-16T00:56:25.602Z,6.66
2023-04-16T00:57:28.013Z,6.66
2023-04-16T00:58:30.478Z,6.68
2023-04-16T00:59:32.637Z,6.68
2023-04-16T01:00:34.754Z,6.67
2023-04-16T01:01:36.919Z,6.69
2023-04-16T01:02:39.499Z,6.69
2023-04-16T01:03:47.182Z,6.67
2023-04-16T01:04:49.375Z,6.67
2023-04-16T01:05:51.554Z,6.68
2023-04-16T01:06:53.661Z,6.68
2023-04-16T01:07:59.684Z,6.69
2023-04-16T01:09:01.873Z,6.73
2023-04-16T01:10:04.292Z,6.72
2023-04-16T01:11:06.593Z,6.70
2023-04-16T01:12:08.744Z,6.71
2023-04-16T01:13:11.166Z,6.67
2023-04-16T01:14:13.296Z,6.65
2023-04-16T01:15:15.639Z,6.65
2023-04-16T01:16:17.808Z,6.64
2023-04-16T01:17:19.977Z,6.64
2023-04-16T01:18:22.895Z,6.66
2023-04-16T01:19:25.032Z,6.67
2023-04-16T01:20:27.129Z,6.66
2023-04-16T01:21:29.301Z,6.64
2023-04-16T01:22:31.605Z,6.70
2023-04-16T01:23:33.750Z,6.71
2023-04-16T01:24:36.475Z,6.68
2023-04-16T01:25:39.297Z,6.73
2023-04-16T01:26:41.377Z,6.71
2023-04-16T01:27:43.626Z,6.73
2023-04-16T01:28:45.756Z,6.71
2023-04-16T01:29:47.848Z,6.67
2023-04-16T01:30:49.975Z,6.66
2023-04-16T01:31:52.102Z,6.64
2023-04-16T01:32:54.303Z,6.64
2023-04-16T01:33:56.436Z,6.64
2023-04-16T01:34:58.528Z,6.65
2023-04-16T01:36:00.703Z,6.59
2023-04-16T01:37:03.856Z,6.59
2023-04-16T01:38:06.831Z,6.62
2023-04-16T01:39:13.771Z,6.62
2023-04-16T01:40:16.342Z,6.62
2023-04-16T01:41:18.522Z,6.58
2023-04-16T01:42:20.786Z,6.56
2023-04-16T01:43:22.978Z,6.54
2023-04-16T01:44:25.614Z,6.57
2023-04-16T01:45:27.693Z,6.53
2023-04-16T01:46:32.166Z,6.52
2023-04-16T01:47:34.412Z,6.50
2023-04-16T01:48:36.529Z,6.49
2023-04-16T01:49:38.675Z,6.47
2023-04-16T01:50:41.512Z,6.47
2023-04-16T01:51:43.608Z,6.50
2023-04-16T01:52:45.882Z,6.48
2023-04-16T01:53:47.988Z,6.46
2023-04-16T01:54:50.200Z,6.44
2023-04-16T01:55:52.309Z,6.46
2023-04-16T01:56:54.412Z,6.42
2023-04-16T01:57:56.478Z,6.41
2023-04-16T01:58:58.598Z,6.41
2023-04-16T02:00:00.786Z,6.41
2023-04-16T02:01:03.259Z,6.40
2023-04-16T02:02:12.355Z,6.38
2023-04-16T02:03:17.715Z,6.41
2023-04-16T02:04:19.876Z,6.38
2023-04-16T02:05:22.091Z,6.35
2023-04-16T02:06:24.264Z,6.32
2023-04-16T02:07:27.435Z,6.31
2023-04-16T02:08:29.600Z,6.33
2023-04-16T02:09:31.989Z,6.31
2023-04-16T02:10:34.099Z,6.31
2023-04-16T02:11:36.319Z,6.30
2023-04-16T02:12:38.518Z,6.28
2023-04-16T02:13:40.757Z,6.25
2023-04-16T02:14:43.258Z,6.26
2023-04-16T02:15:49.739Z,6.24
2023-04-16T02:16:52.381Z,6.21
2023-04-16T02:17:57.004Z,6.24
2023-04-16T02:18:59.220Z,6.23
2023-04-16T02:20:03.384Z,6.26
2023-04-16T02:21:06.563Z,6.26
2023-04-16T02:22:08.708Z,6.28
2023-04-16T02:23:11.961Z,6.28
2023-04-16T02:24:14.107Z,6.25
2023-04-16T02:25:16.260Z,6.30
2023-04-16T02:26:18.450Z,6.28
2023-04-16T02:27:20.696Z,6.28
2023-04-16T02:28:22.856Z,6.27
2023-04-16T02:29:24.967Z,6.27
2023-04-16T02:30:27.210Z,6.26
2023-04-16T02:31:29.730Z,6.23
2023-04-16T02:32:31.827Z,6.25
2023-04-16T02:33:35.918Z,6.22
2023-04-16T02:34:40.251Z,6.22
2023-04-16T02:35:42.481Z,6.17
2023-04-16T02:36:44.650Z,6.18
2023-04-16T02:37:46.774Z,6.15
2023-04-16T02:38:48.938Z,6.14
2023-04-16T02:39:51.515Z,6.09
2023-04-16T02:40:53.763Z,6.05
2023-04-16T02:41:56.243Z,6.12
2023-04-16T02:42:58.362Z,6.09
2023-04-16T02:44:01.000Z,6.05
2023-04-16T02:45:03.286Z,6.02
2023-04-16T02:46:05.513Z,6.04
2023-04-16T02:47:07.783Z,6.00
2023-04-16T02:48:10.032Z,5.99
2023-04-16T02:49:12.256Z,5.99
2023-04-16T02:50:14.717Z,6.00
2023-04-16T02:51:16.861Z,6.00
2023-04-16T02:52:18.980Z,5.99
2023-04-16T02:53:21.442Z,6.01
2023-04-16T02:54:23.596Z,6.01
2023-04-16T02:55:25.832Z,5.99
2023-04-16T02:56:27.940Z,6.04
2023-04-16T02:57:30.207Z,6.03
2023-04-16T02:58:32.425Z,5.99
2023-04-16T02:59:34.506Z,5.99
2023-04-16T03:00:38.209Z,5.98
2023-04-16T03:01:40.370Z,5.96
2023-04-16T03:02:42.692Z,5.94
2023-04-16T03:03:44.950Z,5.94
2023-04-16T03:04:47.149Z,5.95
2023-04-16T03:05:49.274Z,5.94
2023-04-16T03:06:51.377Z,5.97
2023-04-16T03:07:56.771Z,6.06
2023-04-16T03:08:59.044Z,6.03
2023-04-16T03:10:01.168Z,6.01
2023-04-16T03:11:03.298Z,5.99
2023-04-16T03:12:05.648Z,5.94
2023-04-16T03:13:07.901Z,5.90
2023-04-16T03:14:09.976Z,5.88
2023-04-16T03:15:12.153Z,5.87
2023-04-16T03:16:14.376Z,5.83
2023-04-16T03:17:16.681Z,5.84
2023-04-16T03:18:18.921Z,5.82
2023-04-16T03:19:21.061Z,5.87
2023-04-16T03:20:23.425Z,5.82
2023-04-16T03:21:27.671Z,5.83
2023-04-16T03:22:30.209Z,5.83
2023-04-16T03:23:32.352Z,5.84
2023-04-16T03:24:34.451Z,5.86
2023-04-16T03:25:36.694Z,5.84
2023-04-16T03:26:38.873Z,5.83
2023-04-16T03:27:41.013Z,5.79
2023-04-16T03:28:43.165Z,5.77
2023-04-16T03:29:45.357Z,5.77
2023-04-16T03:30:53.774Z,5.77
2023-04-16T03:31:56.096Z,5.78
2023-04-16T03:32:58.256Z,5.75
2023-04-16T03:34:00.595Z,5.73
2023-04-16T03:35:06.971Z,5.70
2023-04-16T03:36:10.157Z,5.67
2023-04-16T03:37:12.359Z,5.64
2023-04-16T03:38:14.518Z,5.62
2023-04-16T03:39:16.781Z,5.61
2023-04-16T03:40:18.907Z,5.61
2023-04-16T03:41:20.999Z,5.59
2023-04-16T03:42:23.082Z,5.60
2023-04-16T03:43:25.233Z,5.59
2023-04-16T03:44:27.298Z,5.57
2023-04-16T03:45:29.392Z,5.53
2023-04-16T03:46:31.572Z,5.54
2023-04-16T03:47:33.689Z,5.55
2023-04-16T03:48:36.614Z,5.52
2023-04-16T03:49:38.808Z,5.49
2023-04-16T03:50:41.280Z,5.50
2023-04-16T03:51:43.374Z,5.50
2023-04-16T03:52:46.959Z,5.51
2023-04-16T03:53:49.070Z,5.43
2023-04-16T03:54:51.294Z,5.43
2023-04-16T03:55:53.359Z,5.43
2023-04-16T03:56:55.454Z,5.48
2023-04-16T03:57:57.706Z,5.51
2023-04-16T03:58:59.807Z,5.59
2023-04-16T04:00:01.912Z,5.64
2023-04-16T04:01:03.999Z,5.68
2023-04-16T04:02:06.227Z,5.71
2023-04-16T04:03:08.515Z,5.79
2023-04-16T04:04:11.092Z,5.82
2023-04-16T04:05:13.397Z,5.80
2023-04-16T04:06:15.575Z,5.82
2023-04-16T04:07:17.655Z,5.82
2023-04-16T04:08:19.888Z,5.83
2023-04-16T04:09:22.001Z,5.84
2023-04-16T04:10:24.107Z,5.81
2023-04-16T04:11:26.305Z,5.86
2023-04-16T04:12:28.454Z,5.86
2023-04-16T04:13:30.641Z,5.83
2023-04-16T04:14:32.742Z,5.85
2023-04-16T04:15:34.925Z,5.88
2023-04-16T04:16:37.040Z,5.89
2023-04-16T04:17:39.192Z,5.86
2023-04-16T04:18:42.716Z,5.89
2023-04-16T04:20:00.016Z,5.90
2023-04-16T04:21:09.538Z,5.92
2023-04-16T04:22:11.641Z,5.96
2023-04-16T04:23:13.711Z,6.04
2023-04-16T04:24:15.817Z,6.09
2023-04-16T04:25:17.982Z,6.12
2023-04-16T04:26:20.212Z,6.13
2023-04-16T04:27:22.332Z,6.13
2023-04-16T04:28:24.432Z,6.18
2023-04-16T04:29:26.516Z,6.23
2023-04-16T04:30:28.661Z,6.27
2023-04-16T04:31:31.038Z,6.32
2023-04-16T04:32:33.244Z,6.37
2023-04-16T04:33:35.473Z,6.43
2023-04-16T04:34:37.557Z,6.46
2023-04-16T04:35:39.714Z,6.50
2023-04-16T04:36:41.972Z,6.48
2023-04-16T04:37:44.056Z,6.48
2023-04-16T04:38:46.221Z,6.44
2023-04-16T04:39:48.430Z,6.42
2023-04-16T04:40:52.065Z,6.42
2023-04-16T04:41:54.155Z,6.48
2023-04-16T04:42:56.256Z,6.46
2023-04-16T04:43:58.325Z,6.47
2023-04-16T04:45:00.649Z,6.37
2023-04-16T04:46:02.871Z,6.37
2023-04-16T04:47:05.022Z,6.37
2023-04-16T04:48:07.276Z,6.34
2023-04-16T04:49:09.649Z,6.35
2023-04-16T04:50:11.915Z,6.40
2023-04-16T04:51:14.075Z,6.41
2023-04-16T04:52:16.205Z,6.42
2023-04-16T04:53:18.398Z,6.42
2023-04-16T04:54:20.525Z,6.41
2023-04-16T04:55:22.756Z,6.44
2023-04-16T04:56:24.906Z,6.42
2023-04-16T04:57:27.044Z,6.41
2023-04-16T04:58:29.147Z,6.41
2023-04-16T04:59:31.265Z,6.39
2023-04-16T05:00:34.228Z,6.35
2023-04-16T05:01:36.455Z,6.39
2023-04-16T05:02:38.761Z,6.40
2023-04-16T05:03:41.290Z,6.44
2023-04-16T05:04:43.561Z,6.49
2023-04-16T05:05:45.899Z,6.53
2023-04-16T05:06:47.978Z,6.57
2023-04-16T05:07:50.101Z,6.59
2023-04-16T05:08:52.218Z,6.60
2023-04-16T05:09:54.355Z,6.59
2023-04-16T05:10:56.480Z,6.61
2023-04-16T05:11:58.907Z,6.62
2023-04-16T05:13:01.265Z,6.67
2023-04-16T05:14:03.360Z,6.69
2023-04-16T05:15:06.044Z,6.70
2023-04-16T05:16:08.181Z,6.74
2023-04-16T05:17:11.043Z,6.70
2023-04-16T05:18:13.203Z,6.71
2023-04-16T05:19:17.086Z,6.71
2023-04-16T05:20:19.251Z,6.74
2023-04-16T05:21:21.567Z,6.76
2023-04-16T05:22:23.667Z,6.80
2023-04-16T05:23:25.742Z,6.82
2023-04-16T05:24:27.822Z,6.78
2023-04-16T05:25:29.922Z,6.76
2023-04-16T05:26:32.039Z,6.79
2023-04-16T05:27:34.133Z,6.75
2023-04-16T05:28:36.227Z,6.80
2023-04-16T05:29:38.322Z,6.84
2023-04-16T05:30:40.495Z,6.79
2023-04-16T05:31:42.735Z,6.82
2023-04-16T05:32:44.883Z,6.87
2023-04-16T05:33:47.014Z,6.90
2023-04-16T05:34:49.131Z,6.90
2023-04-16T05:35:51.376Z,6.92
2023-04-16T05:36:53.502Z,6.96
2023-04-16T05:37:55.691Z,7.03
2023-04-16T05:38:57.839Z,7.03
2023-04-16T05:39:59.963Z,7.14
2023-04-16T05:41:02.045Z,7.15
2023-04-16T05:42:04.243Z,7.19
2023-04-16T05:43:06.357Z,7.22
2023-04-16T05:44:08.518Z,7.29
2023-04-16T05:45:10.969Z,7.28
2023-04-16T05:46:13.201Z,7.29
2023-04-16T05:47:15.547Z,7.31
2023-04-16T05:48:17.645Z,7.33
2023-04-16T05:49:20.247Z,7.32
2023-04-16T05:50:22.380Z,7.30
2023-04-16T05:51:26.143Z,7.33
2023-04-16T05:52:28.261Z,7.39
2023-04-16T05:53:30.372Z,7.44
2023-04-16T05:54:32.454Z,7.50
2023-04-16T05:55:36.836Z,7.48
2023-04-16T05:56:38.959Z,7.45
2023-04-16T05:57:41.099Z,7.44
2023-04-16T05:58:43.259Z,7.50
2023-04-16T05:59:45.382Z,7.54
2023-04-16T06:00:47.598Z,7.55
2023-04-16T06:01:49.741Z,7.55
2023-04-16T06:02:51.960Z,7.57
2023-04-16T06:03:54.305Z,7.64
2023-04-16T06:04:56.497Z,7.68
2023-04-16T06:05:58.667Z,7.74
2023-04-16T06:07:00.940Z,7.75
2023-04-16T06:08:03.057Z,7.74
2023-04-16T06:09:05.228Z,7.78
2023-04-16T06:10:07.715Z,7.82
2023-04-16T06:11:09.879Z,7.84
2023-04-16T06:12:11.988Z,7.81
2023-04-16T06:13:14.159Z,7.75
2023-04-16T06:14:16.286Z,7.73
2023-04-16T06:15:18.447Z,7.72
2023-04-16T06:16:20.587Z,7.70
2023-04-16T06:17:22.962Z,7.73
2023-04-16T06:18:25.253Z,7.76
2023-04-16T06:19:27.394Z,7.79
2023-04-16T06:20:29.673Z,7.78
2023-04-16T06:21:32.247Z,7.89
2023-04-16T06:22:34.374Z,7.99
2023-04-16T06:23:36.515Z,8.02
2023-04-16T06:24:38.626Z,8.11
2023-04-16T06:25:40.773Z,8.17
2023-04-16T06:26:42.889Z,8.24
2023-04-16T06:27:45.000Z,8.22
2023-04-16T06:28:47.088Z,8.30
2023-04-16T06:29:49.361Z,8.34
2023-04-16T06:30:51.487Z,8.44
2023-04-16T06:31:53.727Z,8.40
2023-04-16T06:32:55.984Z,8.47
2023-04-16T06:33:58.259Z,8.50
2023-04-16T06:35:00.456Z,8.58
2023-04-16T06:36:02.586Z,8.70
2023-04-16T06:37:04.810Z,8.71
2023-04-16T06:38:06.930Z,8.82
2023-04-16T06:39:09.440Z,8.92
2023-04-16T06:40:12.205Z,8.87
2023-04-16T06:41:14.553Z,8.89
2023-04-16T06:42:16.725Z,8.88
2023-04-16T06:43:18.906Z,8.86
2023-04-16T06:44:21.081Z,8.90
2023-04-16T06:45:23.250Z,8.93
2023-04-16T06:46:25.456Z,8.81
2023-04-16T06:47:27.654Z,8.79
2023-04-16T06:48:30.107Z,8.86
2023-04-16T06:49:32.236Z,8.95
2023-04-16T06:50:34.496Z,8.94
2023-04-16T06:51:36.666Z,9.03
2023-04-16T06:52:38.758Z,9.03
2023-04-16T06:53:41.096Z,9.15
2023-04-16T06:54:43.334Z,9.16
2023-04-16T06:55:45.603Z,9.16
2023-04-16T06:56:47.702Z,9.20
2023-04-16T06:57:49.820Z,9.26
2023-04-16T06:58:52.009Z,9.32
2023-04-16T06:59:54.140Z,9.36
2023-04-16T07:00:56.323Z,9.45
2023-04-16T07:01:58.635Z,9.45
2023-04-16T07:03:01.966Z,9.58
2023-04-16T07:04:04.589Z,9.75
2023-04-16T07:05:07.200Z,9.72
2023-04-16T07:06:09.331Z,9.80
2023-04-16T07:07:11.426Z,9.77
2023-04-16T07:08:13.576Z,9.83
2023-04-16T07:09:15.712Z,9.89
2023-04-16T07:10:18.328Z,9.80
2023-04-16T07:11:20.984Z,9.79
2023-04-16T07:12:23.225Z,9.88
2023-04-16T07:13:26.014Z,10.00
2023-04-16T07:14:28.158Z,10.07
2023-04-16T07:15:30.349Z,10.12
2023-04-16T07:16:32.489Z,10.16
2023-04-16T07:17:34.762Z,10.25
2023-04-16T07:18:36.973Z,10.34
2023-04-16T07:19:39.120Z,10.50
2023-04-16T07:20:41.265Z,10.59
2023-04-16T07:21:43.857Z,10.71
2023-04-16T07:22:46.175Z,10.70
2023-04-16T07:23:48.295Z,10.92
2023-04-16T07:24:50.399Z,10.93
2023-04-16T07:25:52.542Z,11.14
2023-04-16T07:26:54.623Z,11.16
2023-04-16T07:27:56.798Z,11.02
2023-04-16T07:28:58.903Z,10.94
2023-04-16T07:30:00.993Z,11.02
2023-04-16T07:31:03.137Z,11.10
2023-04-16T07:32:05.399Z,11.13
2023-04-16T07:33:07.678Z,11.09
2023-04-16T07:34:09.824Z,11.00
2023-04-16T07:35:11.964Z,11.06
2023-04-16T07:36:14.111Z,11.12
2023-04-16T07:37:16.294Z,11.12
2023-04-16T07:38:18.390Z,11.19
2023-04-16T07:39:20.481Z,11.29
2023-04-16T07:40:23.676Z,11.31
2023-04-16T07:41:25.969Z,11.28
2023-04-16T07:42:28.614Z,11.32
2023-04-16T07:43:30.740Z,11.35
2023-04-16T07:44:32.871Z,11.33
2023-04-16T07:45:35.037Z,11.44
2023-04-16T07:46:46.300Z,11.46
2023-04-16T07:47:48.933Z,11.40
2023-04-16T07:48:51.082Z,11.41
2023-04-16T07:49:53.828Z,11.48
2023-04-16T07:50:55.959Z,11.56
2023-04-16T07:51:58.043Z,11.52
2023-04-16T07:53:00.276Z,11.54
2023-04-16T07:54:02.773Z,11.62
2023-04-16T07:55:05.590Z,11.73
2023-04-16T07:56:07.933Z,11.78
2023-04-16T07:57:10.037Z,11.90
2023-04-16T07:58:12.132Z,11.92
2023-04-16T07:59:23.105Z,11.93
2023-04-16T08:00:26.457Z,11.75
2023-04-16T08:01:28.612Z,11.73
2023-04-16T08:02:30.909Z,11.81
2023-04-16T08:03:33.377Z,11.88
2023-04-16T08:04:35.860Z,11.94
2023-04-16T08:05:38.196Z,11.98
2023-04-16T08:06:40.485Z,12.06
2023-04-16T08:07:42.653Z,12.16
2023-04-16T08:08:44.781Z,12.27
2023-04-16T08:09:56.660Z,12.16
2023-04-16T08:10:59.141Z,12.30
2023-04-16T08:12:01.983Z,12.41
2023-04-16T08:13:04.152Z,12.54
2023-04-16T08:14:06.448Z,12.51
2023-04-16T08:15:09.097Z,12.73
2023-04-16T08:16:11.288Z,12.71
2023-04-16T08:17:14.470Z,12.85
2023-04-16T08:18:16.779Z,12.73
2023-04-16T08:19:19.026Z,12.83
2023-04-16T08:20:21.129Z,12.96
2023-04-16T08:21:23.262Z,12.98
2023-04-16T08:22:26.403Z,12.92
2023-04-16T08:23:28.611Z,12.95
2023-04-16T08:24:30.733Z,12.89
2023-04-16T08:25:32.860Z,13.06
2023-04-16T08:26:35.006Z,13.06
2023-04-16T08:27:37.209Z,13.09
2023-04-16T08:28:39.383Z,13.17
2023-04-16T08:29:41.509Z,13.21
2023-04-16T08:30:45.611Z,13.22
2023-04-16T08:31:47.848Z,13.26
2023-04-16T08:32:50.566Z,13.22
2023-04-16T08:33:52.766Z,13.38
2023-04-16T08:34:54.926Z,13.44
2023-04-16T08:35:57.151Z,13.44
2023-04-16T08:36:59.304Z,13.30
2023-04-16T08:38:02.922Z,13.16
2023-04-16T08:39:05.056Z,13.19
2023-04-16T08:40:07.976Z,13.34
2023-04-16T08:41:12.889Z,13.63
2023-04-16T08:42:24.106Z,13.70
2023-04-16T08:43:26.423Z,13.63
2023-04-16T08:44:32.281Z,13.68
2023-04-16T08:45:35.090Z,13.71
2023-04-16T08:46:38.273Z,13.81
2023-04-16T08:47:41.703Z,13.96
2023-04-16T08:48:44.402Z,14.10
2023-04-16T08:49:46.594Z,14.20
2023-04-16T08:50:52.512Z,14.22
2023-04-16T08:51:57.649Z,14.26
2023-04-16T08:53:00.900Z,14.14
2023-04-16T08:54:05.720Z,14.06
2023-04-16T08:55:38.521Z,14.19
2023-04-16T08:56:43.240Z,14.12
2023-04-16T08:57:51.372Z,13.96
2023-04-16T08:58:54.872Z,13.69
2023-04-16T08:59:58.062Z,13.71
2023-04-16T09:01:01.416Z,13.80
2023-04-16T09:02:04.243Z,14.04
2023-04-16T09:03:07.032Z,14.11
2023-04-16T09:04:09.485Z,14.14
2023-04-16T09:05:17.075Z,14.36
2023-04-16T09:06:19.699Z,14.34
2023-04-16T09:07:22.092Z,14.47
2023-04-16T09:08:24.439Z,14.51
2023-04-16T09:09:27.664Z,14.76
2023-04-16T09:10:29.856Z,14.82
2023-04-16T09:11:32.236Z,14.83
2023-04-16T09:12:35.460Z,14.75
2023-04-16T09:13:38.180Z,14.73
2023-04-16T09:14:41.957Z,14.49
2023-04-16T09:15:44.221Z,14.41
2023-04-16T09:16:47.688Z,14.32
2023-04-16T09:17:49.824Z,14.27
2023-04-16T09:18:52.264Z,14.30
2023-04-16T09:19:54.989Z,14.32
2023-04-16T09:20:57.584Z,14.34
2023-04-16T09:21:59.763Z,14.41
2023-04-16T09:23:01.912Z,14.44
2023-04-16T09:24:04.255Z,14.31
2023-04-16T09:25:07.075Z,14.34
2023-04-16T09:26:09.185Z,14.29
2023-04-16T09:27:12.554Z,14.27
2023-04-16T09:28:47.165Z,14.22
2023-04-16T09:29:49.547Z,14.15
2023-04-16T09:30:51.622Z,14.09
2023-04-16T09:32:04.877Z,14.05
2023-04-16T09:33:23.354Z,13.96
2023-04-16T09:34:25.714Z,13.72
2023-04-16T09:35:27.837Z,13.68
2023-04-16T09:36:31.357Z,13.69
2023-04-16T09:37:33.517Z,13.64
2023-04-16T09:38:53.405Z,13.70
2023-04-16T09:40:01.630Z,13.72
2023-04-16T09:41:10.603Z,13.77
2023-04-16T09:42:14.411Z,13.76
2023-04-16T09:43:18.494Z,13.90
2023-04-16T09:44:20.876Z,13.93
2023-04-16T09:45:23.016Z,13.97
2023-04-16T09:46:36.227Z,14.01
2023-04-16T09:47:41.314Z,13.97
2023-04-16T09:48:46.042Z,13.99
2023-04-16T09:49:48.156Z,14.07
2023-04-16T09:50:51.698Z,14.14
2023-04-16T09:51:56.154Z,14.21
2023-04-16T09:53:02.502Z,14.37
2023-04-16T09:54:05.597Z,14.42
2023-04-16T09:55:07.946Z,14.49
2023-04-16T09:56:11.588Z,14.49
2023-04-16T09:57:14.785Z,14.42
2023-04-16T09:58:19.450Z,14.48
2023-04-16T09:59:21.800Z,14.55
2023-04-16T10:00:23.847Z,14.67
2023-04-16T10:01:26.212Z,14.88
2023-04-16T10:02:29.102Z,15.10
2023-04-16T10:03:32.805Z,15.35
2023-04-16T10:04:52.107Z,15.57
2023-04-16T10:05:54.306Z,15.74
2023-04-16T10:07:04.725Z,15.97
2023-04-16T10:08:17.282Z,16.15
2023-04-16T10:09:19.423Z,16.38
2023-04-16T10:10:22.384Z,16.41
2023-04-16T10:11:24.740Z,16.66
2023-04-16T10:12:29.908Z,16.77
2023-04-16T10:13:32.433Z,17.03
2023-04-16T10:14:34.838Z,17.16
2023-04-16T10:15:37.056Z,17.43
2023-04-16T10:16:41.165Z,17.83
2023-04-16T10:17:43.812Z,17.88
2023-04-16T10:18:46.904Z,17.97
2023-04-16T10:19:49.091Z,17.77
2023-04-16T10:20:51.866Z,17.73
2023-04-16T10:21:55.646Z,17.72
2023-04-16T10:22:57.814Z,17.96
2023-04-16T10:24:00.603Z,18.18
2023-04-16T10:25:03.362Z,18.19
2023-04-16T10:26:05.911Z,18.56
2023-04-16T10:27:07.997Z,18.85
2023-04-16T10:28:10.394Z,18.82
2023-04-16T10:29:13.453Z,18.94
2023-04-16T10:30:15.912Z,18.69
2023-04-16T10:31:18.105Z,18.82
2023-04-16T10:32:21.891Z,18.89
2023-04-16T10:33:27.601Z,18.86
2023-04-16T10:34:31.356Z,18.80
2023-04-16T10:35:33.416Z,19.01
2023-04-16T10:36:38.568Z,19.46
2023-04-16T10:37:41.180Z,19.70
2023-04-16T10:38:52.742Z,19.88
2023-04-16T10:39:54.864Z,19.60
2023-04-16T10:41:01.091Z,19.76
2023-04-16T10:42:11.869Z,19.95
2023-04-16T10:43:18.231Z,19.70
2023-04-16T10:44:20.379Z,19.31
2023-04-16T10:45:31.024Z,19.50
2023-04-16T10:46:34.710Z,19.47
2023-04-16T10:47:40.350Z,20.06
2023-04-16T10:48:49.671Z,20.19
2023-04-16T10:49:52.656Z,20.37
2023-04-16T10:50:58.123Z,20.32
2023-04-16T10:52:03.710Z,20.34
2023-04-16T10:53:23.972Z,21.09
2023-04-16T10:54:30.353Z,21.20
2023-04-16T10:55:33.935Z,21.13
2023-04-16T10:56:36.882Z,21.26
2023-04-16T10:57:38.995Z,21.10
2023-04-16T10:58:41.808Z,21.34
2023-04-16T10:59:44.450Z,21.12
2023-04-16T11:00:50.515Z,21.28
2023-04-16T11:01:55.078Z,21.35
2023-04-16T11:02:57.508Z,21.31
2023-04-16T11:04:02.166Z,20.86
2023-04-16T11:05:05.238Z,20.63
2023-04-16T11:06:17.962Z,20.59
2023-04-16T11:07:32.164Z,21.08
2023-04-16T11:08:38.829Z,21.70
2023-04-16T11:09:47.560Z,21.76
2023-04-16T11:10:49.726Z,22.24
2023-04-16T11:11:52.008Z,22.79
2023-04-16T11:12:55.106Z,23.20
2023-04-16T11:13:57.271Z,23.29
2023-04-16T11:15:05.085Z,23.48
2023-04-16T11:16:07.442Z,23.20
2023-04-16T11:17:10.300Z,23.00
2023-04-16T11:18:12.496Z,22.69
2023-04-16T11:19:17.739Z,22.24
2023-04-16T11:20:21.755Z,21.70
2023-04-16T11:21:24.398Z,21.65
2023-04-16T11:22:27.145Z,21.21
2023-04-16T11:23:29.265Z,21.10
2023-04-16T11:24:34.634Z,21.00
2023-04-16T11:25:36.952Z,21.15
2023-04-16T11:26:39.090Z,21.28
2023-04-16T11:27:41.285Z,21.23
2023-04-16T11:28:43.398Z,21.09
2023-04-16T11:29:47.432Z,21.02
2023-04-16T11:30:49.820Z,20.95
2023-04-16T11:31:53.069Z,20.95
2023-04-16T11:32:55.379Z,20.65
2023-04-16T11:33:57.857Z,20.59
2023-04-16T11:35:03.864Z,20.70
2023-04-16T11:36:06.230Z,20.79
2023-04-16T11:37:08.411Z,20.83
2023-04-16T11:38:10.533Z,21.08
2023-04-16T11:39:12.902Z,21.46
2023-04-16T11:40:15.509Z,21.32
2023-04-16T11:41:21.855Z,21.31
2023-04-16T11:42:24.125Z,21.09
2023-04-16T11:43:26.778Z,20.99
2023-04-16T11:44:29.752Z,20.78
2023-04-16T11:45:31.876Z,20.62
2023-04-16T11:46:40.715Z,20.42
2023-04-16T11:47:47.766Z,20.27
2023-04-16T11:48:51.931Z,20.45
2023-04-16T11:49:54.034Z,20.87
2023-04-16T11:50:59.357Z,20.68
2023-04-16T11:52:01.496Z,20.48
2023-04-16T11:53:04.871Z,20.47
2023-04-16T11:54:10.333Z,19.99
2023-04-16T11:55:14.175Z,20.29
2023-04-16T11:56:25.300Z,20.41
2023-04-16T11:57:29.225Z,20.72
2023-04-16T11:58:31.326Z,20.66
2023-04-16T11:59:34.330Z,20.97
2023-04-16T12:00:36.439Z,21.27
2023-04-16T12:01:40.459Z,21.15
2023-04-16T12:02:43.915Z,21.04
2023-04-16T12:03:49.720Z,21.10
2023-04-16T12:04:52.234Z,20.97
2023-04-16T12:05:54.389Z,20.95
2023-04-16T12:07:06.907Z,20.38
2023-04-16T12:08:10.679Z,20.39
2023-04-16T12:09:26.184Z,20.63
2023-04-16T12:10:29.141Z,20.79
2023-04-16T12:11:43.704Z,20.75
2023-04-16T12:12:46.144Z,20.71
2023-04-16T12:14:12.032Z,20.81
2023-04-16T12:15:14.177Z,20.79
2023-04-16T12:16:19.512Z,20.77
2023-04-16T12:17:21.660Z,21.05
2023-04-16T12:18:26.863Z,21.08
2023-04-16T12:19:29.188Z,20.97
2023-04-16T12:20:39.371Z,21.16
2023-04-16T12:21:48.801Z,20.95
2023-04-16T12:22:52.772Z,21.10
2023-04-16T12:23:54.987Z,20.93
2023-04-16T12:25:04.432Z,20.69
2023-04-16T12:26:12.419Z,20.29
2023-04-16T12:27:16.309Z,20.05
2023-04-16T12:28:30.037Z,19.94
2023-04-16T12:29:32.267Z,19.99
2023-04-16T12:30:34.606Z,19.99
2023-04-16T12:31:38.194Z,19.89
2023-04-16T12:32:41.742Z,19.74
2023-04-16T12:33:43.949Z,19.60
2023-04-16T12:34:52.361Z,19.42
2023-04-16T12:35:54.926Z,19.55
2023-04-16T12:37:09.532Z,19.43
2023-04-16T12:38:12.057Z,19.43
2023-04-16T12:39:15.475Z,19.47
2023-04-16T12:40:17.561Z,19.38
2023-04-16T12:41:19.709Z,19.50
2023-04-16T12:42:22.062Z,19.66
2023-04-16T12:43:24.447Z,19.74
2023-04-16T12:44:27.914Z,19.84
2023-04-16T12:45:30.429Z,19.53
2023-04-16T12:46:32.609Z,19.35
2023-04-16T12:47:34.842Z,19.43
2023-04-16T12:48:38.059Z,19.46
2023-04-16T12:49:40.350Z,19.68
2023-04-16T12:50:44.399Z,19.61
2023-04-16T12:51:46.901Z,19.42
2023-04-16T12:52:49.214Z,19.46
2023-04-16T12:53:51.327Z,19.55
2023-04-16T12:54:53.612Z,19.70
2023-04-16T12:55:55.901Z,19.80
2023-04-16T12:56:58.006Z,19.94
2023-04-16T12:58:00.149Z,19.99
2023-04-16T12:59:02.709Z,20.12
2023-04-16T13:00:06.676Z,20.14
2023-04-16T13:01:08.896Z,20.49
2023-04-16T13:02:11.220Z,20.54
2023-04-16T13:03:13.825Z,20.72
2023-04-16T13:04:18.072Z,20.91
2023-04-16T13:05:20.792Z,20.80
2023-04-16T13:06:23.047Z,21.39
2023-04-16T13:07:27.024Z,21.51
2023-04-16T13:08:29.418Z,21.91
2023-04-16T13:09:31.514Z,22.29
2023-04-16T13:10:33.649Z,22.68
2023-04-16T13:11:36.080Z,22.44
2023-04-16T13:12:38.240Z,22.50
2023-04-16T13:13:40.468Z,22.57
2023-04-16T13:14:44.659Z,22.62
2023-04-16T13:15:47.330Z,22.50
2023-04-16T13:16:49.632Z,22.22
2023-04-16T13:17:51.851Z,22.47
2023-04-16T13:18:54.055Z,22.13
2023-04-16T13:19:56.267Z,21.70
2023-04-16T13:20:58.764Z,21.79
2023-04-16T13:22:00.970Z,21.15
2023-04-16T13:23:05.041Z,21.10
2023-04-16T13:24:07.298Z,21.01
2023-04-16T13:25:10.116Z,20.76
2023-04-16T13:26:14.830Z,20.63
2023-04-16T13:27:17.420Z,20.62
2023-04-16T13:28:20.051Z,20.37
2023-04-16T13:29:22.853Z,20.35
2023-04-16T13:30:25.823Z,19.99
2023-04-16T13:31:28.492Z,19.91
2023-04-16T13:32:30.792Z,19.94
2023-04-16T13:33:33.079Z,19.99
2023-04-16T13:34:35.182Z,20.10
2023-04-16T13:35:37.420Z,19.98
2023-04-16T13:36:39.722Z,19.95
2023-04-16T13:37:41.867Z,19.95
2023-04-16T13:38:44.544Z,19.90
2023-04-16T13:39:47.808Z,19.87
2023-04-16T13:40:50.938Z,19.83
2023-04-16T13:41:53.170Z,19.68
2023-04-16T13:42:55.592Z,19.42
2023-04-16T13:43:57.702Z,19.78
2023-04-16T13:45:00.274Z,19.71
2023-04-16T13:46:03.365Z,19.70
2023-04-16T13:47:06.052Z,19.70
2023-04-16T13:48:08.666Z,19.59